La Porte City, Iowa
Current Conditions -  °F | °C
As of 9:15 AM on Monday 24 Nov 2014 (Local Time) from KVTI Reporting Station
Overcast Overcast  
Wind Chill: 12°   Ceiling: 1100
Heat Index: 28°   Visibility: 10mi
Dew Point: 24°   Wind: 29mph
Humidity: 86%   Direction: 300°WNW
Pressure: 29.41"   Gusts: 36mph
Location:  42.31°N, 92.19°W
Report Text: KVTI 241515Z AUTO 30025G31KT 10SM OVC011 M02/M04 A2941 RMK AO2 T10231043
Loading
Personal Weather Stations






























Interactive Weather Map New forecast layout! Learn more

10-Day Weather Forecast

Advertisements
Track Severe Weather on mobile